sensor_id;sensor_type;location;lat;lon;timestamp;P1;durP1;ratioP1;P2;durP2;ratioP2
79076;SDS011;68477;42.698;23.342;2024-01-16T00:01:17;19.50;;;9.10;;
79076;SDS011;68477;42.698;23.342;2024-01-16T00:03:44;19.05;;;9.82;;
79076;SDS011;68477;42.698;23.342;2024-01-16T00:06:09;18.90;;;9.48;;
79076;SDS011;68477;42.698;23.342;2024-01-16T00:08:37;21.73;;;10.50;;
79076;SDS011;68477;42.698;23.342;2024-01-16T00:11:02;20.92;;;11.13;;
79076;SDS011;68477;42.698;23.342;2024-01-16T00:13:28;23.23;;;11.77;;
79076;SDS011;68477;42.698;23.342;2024-01-16T00:15:54;21.00;;;10.57;;
79076;SDS011;68477;42.698;23.342;2024-01-16T00:18:21;22.67;;;10.45;;
79076;SDS011;68477;42.698;23.342;2024-01-16T00:20:47;22.35;;;10.95;;
79076;SDS011;68477;42.698;23.342;2024-01-16T00:23:12;17.77;;;9.75;;
79076;SDS011;68477;42.698;23.342;2024-01-16T00:25:38;25.90;;;10.73;;
79076;SDS011;68477;42.698;23.342;2024-01-16T00:28:03;19.02;;;9.55;;
79076;SDS011;68477;42.698;23.342;2024-01-16T00:30:29;21.80;;;11.40;;
79076;SDS011;68477;42.698;23.342;2024-01-16T00:32:55;21.60;;;12.10;;
79076;SDS011;68477;42.698;23.342;2024-01-16T00:35:20;17.95;;;11.25;;
79076;SDS011;68477;42.698;23.342;2024-01-16T00:37:46;27.38;;;10.95;;
79076;SDS011;68477;42.698;23.342;2024-01-16T00:40:12;17.17;;;10.93;;
79076;SDS011;68477;42.698;23.342;2024-01-16T00:42:37;19.70;;;10.98;;
79076;SDS011;68477;42.698;23.342;2024-01-16T00:45:03;21.20;;;11.98;;
79076;SDS011;68477;42.698;23.342;2024-01-16T00:47:29;20.33;;;11.68;;
79076;SDS011;68477;42.698;23.342;2024-01-16T00:49:55;19.45;;;11.20;;
79076;SDS011;68477;42.698;23.342;2024-01-16T00:52:20;21.27;;;11.73;;
79076;SDS011;68477;42.698;23.342;2024-01-16T00:54:46;21.48;;;11.40;;
79076;SDS011;68477;42.698;23.342;2024-01-16T00:57:11;21.85;;;9.45;;
79076;SDS011;68477;42.698;23.342;2024-01-16T00:59:37;21.45;;;11.93;;
79076;SDS011;68477;42.698;23.342;2024-01-16T01:02:03;21.50;;;10.43;;
79076;SDS011;68477;42.698;23.342;2024-01-16T01:04:29;19.67;;;11.05;;
79076;SDS011;68477;42.698;23.342;2024-01-16T01:06:54;19.40;;;10.52;;
79076;SDS011;68477;42.698;23.342;2024-01-16T01:09:20;19.55;;;11.07;;
79076;SDS011;68477;42.698;23.342;2024-01-16T01:11:46;19.30;;;9.23;;
79076;SDS011;68477;42.698;23.342;2024-01-16T01:14:11;21.63;;;10.57;;
79076;SDS011;68477;42.698;23.342;2024-01-16T01:16:37;20.02;;;10.50;;
79076;SDS011;68477;42.698;23.342;2024-01-16T01:19:02;16.88;;;9.07;;
79076;SDS011;68477;42.698;23.342;2024-01-16T01:21:29;21.38;;;9.38;;
79076;SDS011;68477;42.698;23.342;2024-01-16T01:23:55;17.88;;;10.20;;
79076;SDS011;68477;42.698;23.342;2024-01-16T01:26:22;20.98;;;10.07;;
79076;SDS011;68477;42.698;23.342;2024-01-16T01:28:47;17.42;;;8.77;;
79076;SDS011;68477;42.698;23.342;2024-01-16T01:31:14;19.98;;;10.27;;
79076;SDS011;68477;42.698;23.342;2024-01-16T01:33:39;15.38;;;8.23;;
79076;SDS011;68477;42.698;23.342;2024-01-16T01:36:05;18.02;;;8.80;;
79076;SDS011;68477;42.698;23.342;2024-01-16T01:38:31;16.88;;;8.45;;
79076;SDS011;68477;42.698;23.342;2024-01-16T01:40:56;15.02;;;8.05;;
79076;SDS011;68477;42.698;23.342;2024-01-16T01:43:23;17.67;;;8.30;;
79076;SDS011;68477;42.698;23.342;2024-01-16T01:48:30;15.68;;;8.35;;
79076;SDS011;68477;42.698;23.342;2024-01-16T01:50:57;16.08;;;9.25;;
79076;SDS011;68477;42.698;23.342;2024-01-16T01:53:23;16.20;;;7.65;;
79076;SDS011;68477;42.698;23.342;2024-01-16T01:55:49;14.95;;;8.02;;
79076;SDS011;68477;42.698;23.342;2024-01-16T01:58:16;15.95;;;8.90;;
79076;SDS011;68477;42.698;23.342;2024-01-16T02:00:41;15.35;;;8.50;;
79076;SDS011;68477;42.698;23.342;2024-01-16T02:03:07;11.77;;;7.40;;
79076;SDS011;68477;42.698;23.342;2024-01-16T02:05:33;17.75;;;9.63;;
79076;SDS011;68477;42.698;23.342;2024-01-16T02:07:58;16.75;;;7.70;;
79076;SDS011;68477;42.698;23.342;2024-01-16T02:10:25;14.93;;;7.90;;
79076;SDS011;68477;42.698;23.342;2024-01-16T02:12:51;12.38;;;7.35;;
79076;SDS011;68477;42.698;23.342;2024-01-16T02:15:16;14.32;;;7.65;;
79076;SDS011;68477;42.698;23.342;2024-01-16T02:17:42;17.25;;;7.93;;
79076;SDS011;68477;42.698;23.342;2024-01-16T02:20:07;15.02;;;8.80;;
79076;SDS011;68477;42.698;23.342;2024-01-16T02:22:33;17.50;;;7.82;;
79076;SDS011;68477;42.698;23.342;2024-01-16T02:25:02;14.63;;;7.57;;
79076;SDS011;68477;42.698;23.342;2024-01-16T02:27:28;18.05;;;8.15;;
79076;SDS011;68477;42.698;23.342;2024-01-16T02:29:54;16.55;;;8.73;;
79076;SDS011;68477;42.698;23.342;2024-01-16T02:32:20;15.00;;;7.95;;
79076;SDS011;68477;42.698;23.342;2024-01-16T02:34:45;16.02;;;8.63;;
79076;SDS011;68477;42.698;23.342;2024-01-16T02:37:11;13.48;;;8.23;;
79076;SDS011;68477;42.698;23.342;2024-01-16T02:39:37;13.65;;;7.88;;
79076;SDS011;68477;42.698;23.342;2024-01-16T02:42:02;15.80;;;7.85;;
79076;SDS011;68477;42.698;23.342;2024-01-16T02:44:28;12.88;;;7.28;;
79076;SDS011;68477;42.698;23.342;2024-01-16T02:46:53;16.95;;;8.40;;
79076;SDS011;68477;42.698;23.342;2024-01-16T02:49:19;18.33;;;9.60;;
79076;SDS011;68477;42.698;23.342;2024-01-16T02:51:45;12.95;;;7.97;;
79076;SDS011;68477;42.698;23.342;2024-01-16T02:54:10;15.70;;;8.50;;
79076;SDS011;68477;42.698;23.342;2024-01-16T02:56:37;15.73;;;9.07;;
79076;SDS011;68477;42.698;23.342;2024-01-16T02:59:02;15.95;;;8.23;;
79076;SDS011;68477;42.698;23.342;2024-01-16T03:01:29;17.02;;;9.48;;
79076;SDS011;68477;42.698;23.342;2024-01-16T03:03:55;16.33;;;9.02;;
79076;SDS011;68477;42.698;23.342;2024-01-16T03:06:21;15.32;;;9.13;;
79076;SDS011;68477;42.698;23.342;2024-01-16T03:08:50;15.70;;;7.85;;
79076;SDS011;68477;42.698;23.342;2024-01-16T03:11:16;15.30;;;7.75;;
79076;SDS011;68477;42.698;23.342;2024-01-16T03:13:42;14.95;;;8.48;;
79076;SDS011;68477;42.698;23.342;2024-01-16T03:16:09;8.98;;;5.03;;
79076;SDS011;68477;42.698;23.342;2024-01-16T03:18:36;11.45;;;4.72;;
79076;SDS011;68477;42.698;23.342;2024-01-16T03:21:02;6.22;;;3.25;;
79076;SDS011;68477;42.698;23.342;2024-01-16T03:23:28;6.15;;;3.22;;
79076;SDS011;68477;42.698;23.342;2024-01-16T03:25:54;6.53;;;3.65;;
79076;SDS011;68477;42.698;23.342;2024-01-16T03:28:19;5.70;;;3.47;;
79076;SDS011;68477;42.698;23.342;2024-01-16T03:30:45;5.53;;;3.63;;
79076;SDS011;68477;42.698;23.342;2024-01-16T03:33:11;6.88;;;4.63;;
79076;SDS011;68477;42.698;23.342;2024-01-16T03:35:37;5.90;;;3.75;;
79076;SDS011;68477;42.698;23.342;2024-01-16T03:38:02;6.78;;;3.63;;
79076;SDS011;68477;42.698;23.342;2024-01-16T03:40:28;7.03;;;3.85;;
79076;SDS011;68477;42.698;23.342;2024-01-16T03:42:59;6.97;;;4.38;;
79076;SDS011;68477;42.698;23.342;2024-01-16T03:45:25;6.20;;;3.90;;
79076;SDS011;68477;42.698;23.342;2024-01-16T03:47:50;6.40;;;3.75;;
79076;SDS011;68477;42.698;23.342;2024-01-16T03:50:16;6.88;;;4.28;;
79076;SDS011;68477;42.698;23.342;2024-01-16T03:52:41;5.75;;;4.03;;
79076;SDS011;68477;42.698;23.342;2024-01-16T03:55:07;6.13;;;4.18;;
79076;SDS011;68477;42.698;23.342;2024-01-16T03:57:33;4.82;;;3.55;;
79076;SDS011;68477;42.698;23.342;2024-01-16T03:59:58;5.43;;;3.38;;
79076;SDS011;68477;42.698;23.342;2024-01-16T04:02:24;6.00;;;3.13;;
79076;SDS011;68477;42.698;23.342;2024-01-16T04:04:49;4.93;;;3.75;;
79076;SDS011;68477;42.698;23.342;2024-01-16T04:07:14;4.47;;;3.38;;
79076;SDS011;68477;42.698;23.342;2024-01-16T04:09:41;5.97;;;3.50;;
79076;SDS011;68477;42.698;23.342;2024-01-16T04:12:08;4.05;;;2.53;;
79076;SDS011;68477;42.698;23.342;2024-01-16T04:14:33;4.57;;;3.88;;
79076;SDS011;68477;42.698;23.342;2024-01-16T04:16:59;4.60;;;3.20;;
79076;SDS011;68477;42.698;23.342;2024-01-16T04:19:26;4.13;;;2.63;;
79076;SDS011;68477;42.698;23.342;2024-01-16T04:21:52;5.75;;;2.85;;
79076;SDS011;68477;42.698;23.342;2024-01-16T04:24:17;4.22;;;3.25;;
79076;SDS011;68477;42.698;23.342;2024-01-16T04:26:43;4.50;;;2.80;;
79076;SDS011;68477;42.698;23.342;2024-01-16T04:29:08;3.55;;;2.67;;
79076;SDS011;68477;42.698;23.342;2024-01-16T04:31:38;5.90;;;2.92;;
79076;SDS011;68477;42.698;23.342;2024-01-16T04:34:06;3.83;;;2.50;;
79076;SDS011;68477;42.698;23.342;2024-01-16T04:36:31;4.03;;;2.55;;
79076;SDS011;68477;42.698;23.342;2024-01-16T04:38:57;5.35;;;2.60;;
79076;SDS011;68477;42.698;23.342;2024-01-16T04:41:23;3.13;;;2.15;;
79076;SDS011;68477;42.698;23.342;2024-01-16T04:43:48;3.92;;;2.70;;
79076;SDS011;68477;42.698;23.342;2024-01-16T04:46:15;4.47;;;3.08;;
79076;SDS011;68477;42.698;23.342;2024-01-16T04:48:41;3.92;;;2.40;;
79076;SDS011;68477;42.698;23.342;2024-01-16T04:51:07;4.45;;;2.60;;
79076;SDS011;68477;42.698;23.342;2024-01-16T04:53:34;5.45;;;2.40;;
79076;SDS011;68477;42.698;23.342;2024-01-16T04:55:59;2.92;;;2.03;;
79076;SDS011;68477;42.698;23.342;2024-01-16T04:58:25;2.88;;;2.00;;
79076;SDS011;68477;42.698;23.342;2024-01-16T05:00:51;2.50;;;2.00;;
79076;SDS011;68477;42.698;23.342;2024-01-16T05:03:16;3.00;;;2.25;;
79076;SDS011;68477;42.698;23.342;2024-01-16T05:05:42;3.83;;;2.15;;
79076;SDS011;68477;42.698;23.342;2024-01-16T05:08:07;3.35;;;2.35;;
79076;SDS011;68477;42.698;23.342;2024-01-16T05:10:33;3.53;;;2.10;;
79076;SDS011;68477;42.698;23.342;2024-01-16T05:12:59;3.55;;;2.20;;
79076;SDS011;68477;42.698;23.342;2024-01-16T05:15:24;4.22;;;2.42;;
79076;SDS011;68477;42.698;23.342;2024-01-16T05:17:50;3.88;;;2.35;;
79076;SDS011;68477;42.698;23.342;2024-01-16T05:20:15;3.05;;;2.00;;
79076;SDS011;68477;42.698;23.342;2024-01-16T05:22:41;4.07;;;2.30;;
79076;SDS011;68477;42.698;23.342;2024-01-16T05:25:06;4.32;;;2.40;;
79076;SDS011;68477;42.698;23.342;2024-01-16T05:27:32;3.70;;;2.58;;
79076;SDS011;68477;42.698;23.342;2024-01-16T05:29:58;3.45;;;2.25;;
79076;SDS011;68477;42.698;23.342;2024-01-16T05:32:24;4.97;;;2.45;;
79076;SDS011;68477;42.698;23.342;2024-01-16T05:34:51;3.28;;;2.50;;
79076;SDS011;68477;42.698;23.342;2024-01-16T05:37:17;4.00;;;2.22;;
79076;SDS011;68477;42.698;23.342;2024-01-16T05:39:43;4.50;;;2.50;;
79076;SDS011;68477;42.698;23.342;2024-01-16T05:42:08;5.57;;;2.63;;
79076;SDS011;68477;42.698;23.342;2024-01-16T05:44:36;2.97;;;2.08;;
79076;SDS011;68477;42.698;23.342;2024-01-16T05:47:02;3.03;;;1.90;;
79076;SDS011;68477;42.698;23.342;2024-01-16T05:49:28;2.75;;;1.80;;
79076;SDS011;68477;42.698;23.342;2024-01-16T05:51:54;3.78;;;2.20;;
79076;SDS011;68477;42.698;23.342;2024-01-16T05:54:19;3.40;;;1.92;;
79076;SDS011;68477;42.698;23.342;2024-01-16T05:56:45;3.92;;;2.33;;
79076;SDS011;68477;42.698;23.342;2024-01-16T05:59:11;5.72;;;2.13;;
79076;SDS011;68477;42.698;23.342;2024-01-16T06:01:36;2.55;;;1.95;;
79076;SDS011;68477;42.698;23.342;2024-01-16T06:04:03;3.70;;;2.03;;
79076;SDS011;68477;42.698;23.342;2024-01-16T06:06:28;4.15;;;2.25;;
79076;SDS011;68477;42.698;23.342;2024-01-16T06:08:54;3.95;;;2.42;;
79076;SDS011;68477;42.698;23.342;2024-01-16T06:11:29;3.03;;;2.00;;
79076;SDS011;68477;42.698;23.342;2024-01-16T06:13:55;3.90;;;2.15;;
79076;SDS011;68477;42.698;23.342;2024-01-16T06:16:21;5.28;;;2.15;;
79076;SDS011;68477;42.698;23.342;2024-01-16T06:18:46;4.55;;;2.53;;
79076;SDS011;68477;42.698;23.342;2024-01-16T06:21:12;4.43;;;2.45;;
79076;SDS011;68477;42.698;23.342;2024-01-16T06:23:37;3.55;;;2.53;;
79076;SDS011;68477;42.698;23.342;2024-01-16T06:26:03;3.75;;;2.55;;
79076;SDS011;68477;42.698;23.342;2024-01-16T06:28:29;4.72;;;2.25;;
79076;SDS011;68477;42.698;23.342;2024-01-16T06:30:54;3.67;;;2.38;;
79076;SDS011;68477;42.698;23.342;2024-01-16T06:33:20;3.60;;;2.58;;
79076;SDS011;68477;42.698;23.342;2024-01-16T06:35:45;5.75;;;3.38;;
79076;SDS011;68477;42.698;23.342;2024-01-16T06:38:11;4.68;;;2.30;;
79076;SDS011;68477;42.698;23.342;2024-01-16T06:40:36;3.78;;;2.40;;
79076;SDS011;68477;42.698;23.342;2024-01-16T06:43:02;3.50;;;2.55;;
79076;SDS011;68477;42.698;23.342;2024-01-16T06:45:28;3.67;;;2.22;;
79076;SDS011;68477;42.698;23.342;2024-01-16T06:47:54;7.82;;;4.05;;
79076;SDS011;68477;42.698;23.342;2024-01-16T06:50:19;3.00;;;2.03;;
79076;SDS011;68477;42.698;23.342;2024-01-16T06:52:45;3.65;;;2.33;;
79076;SDS011;68477;42.698;23.342;2024-01-16T06:55:10;4.35;;;2.75;;
79076;SDS011;68477;42.698;23.342;2024-01-16T06:57:36;4.07;;;2.42;;
79076;SDS011;68477;42.698;23.342;2024-01-16T07:00:01;3.00;;;2.10;;
79076;SDS011;68477;42.698;23.342;2024-01-16T07:02:28;2.53;;;1.77;;
79076;SDS011;68477;42.698;23.342;2024-01-16T07:04:53;3.72;;;2.60;;
79076;SDS011;68477;42.698;23.342;2024-01-16T07:07:19;5.53;;;2.78;;
79076;SDS011;68477;42.698;23.342;2024-01-16T07:12:10;3.88;;;2.78;;
79076;SDS011;68477;42.698;23.342;2024-01-16T07:14:37;4.00;;;2.65;;
79076;SDS011;68477;42.698;23.342;2024-01-16T07:17:04;4.55;;;2.45;;
79076;SDS011;68477;42.698;23.342;2024-01-16T07:19:32;4.25;;;2.72;;
79076;SDS011;68477;42.698;23.342;2024-01-16T07:21:58;4.63;;;2.53;;
79076;SDS011;68477;42.698;23.342;2024-01-16T07:24:23;4.85;;;2.55;;
79076;SDS011;68477;42.698;23.342;2024-01-16T07:26:49;4.60;;;2.88;;
79076;SDS011;68477;42.698;23.342;2024-01-16T07:29:15;3.78;;;2.58;;
79076;SDS011;68477;42.698;23.342;2024-01-16T07:31:40;3.80;;;2.47;;
79076;SDS011;68477;42.698;23.342;2024-01-16T07:34:06;4.00;;;2.58;;
79076;SDS011;68477;42.698;23.342;2024-01-16T07:36:32;3.70;;;2.58;;
79076;SDS011;68477;42.698;23.342;2024-01-16T07:38:57;4.80;;;2.30;;
79076;SDS011;68477;42.698;23.342;2024-01-16T07:41:24;3.45;;;2.40;;
79076;SDS011;68477;42.698;23.342;2024-01-16T07:43:49;4.55;;;2.83;;
79076;SDS011;68477;42.698;23.342;2024-01-16T07:46:15;3.10;;;2.20;;
79076;SDS011;68477;42.698;23.342;2024-01-16T07:48:41;3.90;;;2.53;;
79076;SDS011;68477;42.698;23.342;2024-01-16T07:51:06;2.95;;;2.15;;
79076;SDS011;68477;42.698;23.342;2024-01-16T07:53:32;4.80;;;3.03;;
79076;SDS011;68477;42.698;23.342;2024-01-16T07:55:58;5.55;;;3.30;;
79076;SDS011;68477;42.698;23.342;2024-01-16T07:58:24;6.65;;;3.20;;
79076;SDS011;68477;42.698;23.342;2024-01-16T08:00:49;5.43;;;2.92;;
79076;SDS011;68477;42.698;23.342;2024-01-16T08:03:15;4.72;;;3.28;;
79076;SDS011;68477;42.698;23.342;2024-01-16T08:05:40;7.63;;;3.13;;
79076;SDS011;68477;42.698;23.342;2024-01-16T08:08:09;2.58;;;1.70;;
79076;SDS011;68477;42.698;23.342;2024-01-16T08:10:35;7.95;;;3.38;;
79076;SDS011;68477;42.698;23.342;2024-01-16T08:13:01;5.45;;;3.05;;
79076;SDS011;68477;42.698;23.342;2024-01-16T08:15:26;5.53;;;2.97;;
79076;SDS011;68477;42.698;23.342;2024-01-16T08:17:51;4.60;;;2.00;;
79076;SDS011;68477;42.698;23.342;2024-01-16T08:20:17;13.80;;;4.25;;
79076;SDS011;68477;42.698;23.342;2024-01-16T08:22:43;4.80;;;2.67;;
79076;SDS011;68477;42.698;23.342;2024-01-16T08:25:08;4.25;;;2.25;;
79076;SDS011;68477;42.698;23.342;2024-01-16T08:27:34;5.22;;;3.22;;
79076;SDS011;68477;42.698;23.342;2024-01-16T08:30:00;6.03;;;3.50;;
79076;SDS011;68477;42.698;23.342;2024-01-16T08:32:26;9.20;;;4.72;;
79076;SDS011;68477;42.698;23.342;2024-01-16T08:34:52;6.72;;;4.22;;
79076;SDS011;68477;42.698;23.342;2024-01-16T08:37:17;6.68;;;3.65;;
79076;SDS011;68477;42.698;23.342;2024-01-16T08:39:43;5.20;;;2.60;;
79076;SDS011;68477;42.698;23.342;2024-01-16T08:42:08;7.28;;;3.45;;
79076;SDS011;68477;42.698;23.342;2024-01-16T08:44:40;10.48;;;4.57;;
79076;SDS011;68477;42.698;23.342;2024-01-16T08:47:05;9.25;;;5.35;;
79076;SDS011;68477;42.698;23.342;2024-01-16T08:49:31;11.20;;;5.18;;
79076;SDS011;68477;42.698;23.342;2024-01-16T08:51:58;38.97;;;5.00;;
79076;SDS011;68477;42.698;23.342;2024-01-16T08:54:23;10.48;;;3.53;;
79076;SDS011;68477;42.698;23.342;2024-01-16T08:56:50;11.07;;;3.50;;
79076;SDS011;68477;42.698;23.342;2024-01-16T08:59:16;3.67;;;2.42;;
79076;SDS011;68477;42.698;23.342;2024-01-16T09:01:42;5.15;;;3.15;;
79076;SDS011;68477;42.698;23.342;2024-01-16T09:04:07;8.93;;;3.47;;
79076;SDS011;68477;42.698;23.342;2024-01-16T09:06:33;6.88;;;2.20;;
79076;SDS011;68477;42.698;23.342;2024-01-16T09:09:00;3.65;;;2.55;;
79076;SDS011;68477;42.698;23.342;2024-01-16T09:11:25;3.42;;;2.60;;
79076;SDS011;68477;42.698;23.342;2024-01-16T09:13:51;5.35;;;3.20;;
79076;SDS011;68477;42.698;23.342;2024-01-16T09:16:17;2.92;;;1.73;;
79076;SDS011;68477;42.698;23.342;2024-01-16T09:18:42;3.25;;;1.92;;
79076;SDS011;68477;42.698;23.342;2024-01-16T09:21:08;10.00;;;2.88;;
79076;SDS011;68477;42.698;23.342;2024-01-16T09:23:33;3.70;;;2.30;;
79076;SDS011;68477;42.698;23.342;2024-01-16T09:25:59;5.50;;;2.53;;
79076;SDS011;68477;42.698;23.342;2024-01-16T09:28:24;3.75;;;2.78;;
79076;SDS011;68477;42.698;23.342;2024-01-16T09:30:50;5.28;;;2.38;;
79076;SDS011;68477;42.698;23.342;2024-01-16T09:33:16;16.70;;;4.03;;
79076;SDS011;68477;42.698;23.342;2024-01-16T09:35:41;7.53;;;3.53;;
79076;SDS011;68477;42.698;23.342;2024-01-16T09:38:07;4.65;;;2.72;;
79076;SDS011;68477;42.698;23.342;2024-01-16T09:40:33;3.72;;;2.50;;
79076;SDS011;68477;42.698;23.342;2024-01-16T09:43:00;4.82;;;2.95;;
79076;SDS011;68477;42.698;23.342;2024-01-16T09:45:26;5.07;;;2.85;;
79076;SDS011;68477;42.698;23.342;2024-01-16T09:47:53;4.10;;;2.35;;
79076;SDS011;68477;42.698;23.342;2024-01-16T09:50:19;5.05;;;3.15;;
79076;SDS011;68477;42.698;23.342;2024-01-16T09:52:45;4.90;;;2.72;;
79076;SDS011;68477;42.698;23.342;2024-01-16T09:55:11;6.93;;;2.25;;
79076;SDS011;68477;42.698;23.342;2024-01-16T09:57:38;6.10;;;2.50;;
79076;SDS011;68477;42.698;23.342;2024-01-16T10:00:06;4.63;;;2.60;;
79076;SDS011;68477;42.698;23.342;2024-01-16T10:02:39;4.18;;;2.50;;
79076;SDS011;68477;42.698;23.342;2024-01-16T10:05:15;5.38;;;3.20;;
79076;SDS011;68477;42.698;23.342;2024-01-16T10:07:42;5.78;;;2.75;;
79076;SDS011;68477;42.698;23.342;2024-01-16T10:10:11;4.38;;;2.30;;
79076;SDS011;68477;42.698;23.342;2024-01-16T10:12:37;4.80;;;2.60;;
79076;SDS011;68477;42.698;23.342;2024-01-16T10:15:06;3.90;;;2.58;;
79076;SDS011;68477;42.698;23.342;2024-01-16T10:17:36;4.28;;;2.47;;
79076;SDS011;68477;42.698;23.342;2024-01-16T10:20:02;2.92;;;1.88;;
79076;SDS011;68477;42.698;23.342;2024-01-16T10:22:29;3.95;;;2.58;;
79076;SDS011;68477;42.698;23.342;2024-01-16T10:27:32;11.50;;;4.00;;
79076;SDS011;68477;42.698;23.342;2024-01-16T10:29:59;5.05;;;2.50;;
79076;SDS011;68477;42.698;23.342;2024-01-16T10:32:27;5.47;;;2.50;;
79076;SDS011;68477;42.698;23.342;2024-01-16T10:37:48;6.10;;;2.67;;
79076;SDS011;68477;42.698;23.342;2024-01-16T10:40:15;5.55;;;3.03;;
79076;SDS011;68477;42.698;23.342;2024-01-16T10:42:41;3.78;;;2.55;;
79076;SDS011;68477;42.698;23.342;2024-01-16T10:45:11;7.10;;;2.97;;
79076;SDS011;68477;42.698;23.342;2024-01-16T10:47:42;5.40;;;2.90;;
79076;SDS011;68477;42.698;23.342;2024-01-16T10:50:08;4.05;;;2.67;;
79076;SDS011;68477;42.698;23.342;2024-01-16T10:52:34;4.50;;;2.58;;
79076;SDS011;68477;42.698;23.342;2024-01-16T10:55:07;3.67;;;2.40;;
79076;SDS011;68477;42.698;23.342;2024-01-16T10:57:34;5.03;;;3.13;;
79076;SDS011;68477;42.698;23.342;2024-01-16T11:00:05;5.13;;;3.03;;
79076;SDS011;68477;42.698;23.342;2024-01-16T11:02:38;5.55;;;2.28;;
79076;SDS011;68477;42.698;23.342;2024-01-16T11:05:16;5.18;;;3.10;;
79076;SDS011;68477;42.698;23.342;2024-01-16T11:07:42;7.20;;;2.95;;
79076;SDS011;68477;42.698;23.342;2024-01-16T11:10:11;7.13;;;3.60;;
79076;SDS011;68477;42.698;23.342;2024-01-16T11:12:38;5.07;;;2.83;;
79076;SDS011;68477;42.698;23.342;2024-01-16T11:15:07;5.55;;;2.67;;
79076;SDS011;68477;42.698;23.342;2024-01-16T11:17:37;6.47;;;2.70;;
79076;SDS011;68477;42.698;23.342;2024-01-16T11:20:03;4.55;;;2.80;;
79076;SDS011;68477;42.698;23.342;2024-01-16T11:22:38;4.90;;;2.60;;
79076;SDS011;68477;42.698;23.342;2024-01-16T11:25:15;5.15;;;2.85;;
79076;SDS011;68477;42.698;23.342;2024-01-16T11:27:43;4.72;;;3.20;;
79076;SDS011;68477;42.698;23.342;2024-01-16T11:30:10;4.32;;;3.10;;
79076;SDS011;68477;42.698;23.342;2024-01-16T11:32:37;3.90;;;2.65;;
79076;SDS011;68477;42.698;23.342;2024-01-16T11:35:13;3.85;;;1.95;;
79076;SDS011;68477;42.698;23.342;2024-01-16T11:38:15;3.97;;;2.13;;
79076;SDS011;68477;42.698;23.342;2024-01-16T11:40:42;4.55;;;2.50;;
79076;SDS011;68477;42.698;23.342;2024-01-16T11:46:02;4.00;;;2.47;;
79076;SDS011;68477;42.698;23.342;2024-01-16T11:48:32;4.05;;;2.55;;
79076;SDS011;68477;42.698;23.342;2024-01-16T11:50:58;6.38;;;3.30;;
79076;SDS011;68477;42.698;23.342;2024-01-16T12:01:31;5.28;;;3.10;;
79076;SDS011;68477;42.698;23.342;2024-01-16T12:04:06;7.07;;;2.85;;
79076;SDS011;68477;42.698;23.342;2024-01-16T12:06:36;4.55;;;3.53;;
79076;SDS011;68477;42.698;23.342;2024-01-16T12:09:15;3.88;;;1.92;;
79076;SDS011;68477;42.698;23.342;2024-01-16T12:11:44;4.28;;;2.65;;
79076;SDS011;68477;42.698;23.342;2024-01-16T12:14:22;6.80;;;3.25;;
79076;SDS011;68477;42.698;23.342;2024-01-16T12:17:12;6.53;;;3.40;;
79076;SDS011;68477;42.698;23.342;2024-01-16T12:19:38;6.20;;;3.25;;
79076;SDS011;68477;42.698;23.342;2024-01-16T12:22:09;5.38;;;2.60;;
79076;SDS011;68477;42.698;23.342;2024-01-16T12:24:38;4.38;;;2.78;;
79076;SDS011;68477;42.698;23.342;2024-01-16T12:27:04;3.80;;;2.35;;
79076;SDS011;68477;42.698;23.342;2024-01-16T12:29:30;4.50;;;2.40;;
79076;SDS011;68477;42.698;23.342;2024-01-16T12:32:11;4.18;;;2.58;;
79076;SDS011;68477;42.698;23.342;2024-01-16T12:34:43;5.30;;;2.60;;
79076;SDS011;68477;42.698;23.342;2024-01-16T12:37:11;10.00;;;2.72;;
79076;SDS011;68477;42.698;23.342;2024-01-16T12:39:37;2.95;;;1.60;;
79076;SDS011;68477;42.698;23.342;2024-01-16T12:42:03;4.20;;;3.00;;
79076;SDS011;68477;42.698;23.342;2024-01-16T12:44:29;5.30;;;3.10;;
79076;SDS011;68477;42.698;23.342;2024-01-16T12:46:58;3.47;;;1.92;;
79076;SDS011;68477;42.698;23.342;2024-01-16T12:49:26;3.55;;;2.47;;
79076;SDS011;68477;42.698;23.342;2024-01-16T12:52:13;4.47;;;2.78;;
79076;SDS011;68477;42.698;23.342;2024-01-16T12:54:43;5.28;;;2.63;;
79076;SDS011;68477;42.698;23.342;2024-01-16T12:57:16;4.57;;;2.70;;
79076;SDS011;68477;42.698;23.342;2024-01-16T12:59:42;4.00;;;2.20;;
79076;SDS011;68477;42.698;23.342;2024-01-16T13:02:07;3.88;;;2.17;;
79076;SDS011;68477;42.698;23.342;2024-01-16T13:04:33;4.68;;;2.50;;
79076;SDS011;68477;42.698;23.342;2024-01-16T13:07:05;4.63;;;2.65;;
79076;SDS011;68477;42.698;23.342;2024-01-16T13:09:31;3.60;;;2.40;;
79076;SDS011;68477;42.698;23.342;2024-01-16T13:11:56;4.18;;;2.72;;
79076;SDS011;68477;42.698;23.342;2024-01-16T13:14:24;4.05;;;2.40;;
79076;SDS011;68477;42.698;23.342;2024-01-16T13:16:50;4.53;;;2.88;;
79076;SDS011;68477;42.698;23.342;2024-01-16T13:19:16;3.00;;;1.60;;
79076;SDS011;68477;42.698;23.342;2024-01-16T13:21:45;5.35;;;2.30;;
79076;SDS011;68477;42.698;23.342;2024-01-16T13:24:11;3.63;;;2.22;;
79076;SDS011;68477;42.698;23.342;2024-01-16T13:26:37;6.10;;;3.08;;
79076;SDS011;68477;42.698;23.342;2024-01-16T13:29:03;5.72;;;2.90;;
79076;SDS011;68477;42.698;23.342;2024-01-16T13:31:29;5.18;;;3.22;;
79076;SDS011;68477;42.698;23.342;2024-01-16T13:33:55;5.70;;;3.25;;
79076;SDS011;68477;42.698;23.342;2024-01-16T13:36:23;6.20;;;3.08;;
79076;SDS011;68477;42.698;23.342;2024-01-16T13:38:50;3.90;;;2.72;;
79076;SDS011;68477;42.698;23.342;2024-01-16T13:41:16;6.82;;;2.70;;
79076;SDS011;68477;42.698;23.342;2024-01-16T13:43:41;4.50;;;2.70;;
79076;SDS011;68477;42.698;23.342;2024-01-16T13:46:07;3.83;;;1.90;;
79076;SDS011;68477;42.698;23.342;2024-01-16T13:48:35;5.93;;;3.28;;
79076;SDS011;68477;42.698;23.342;2024-01-16T13:51:01;4.25;;;2.40;;
79076;SDS011;68477;42.698;23.342;2024-01-16T13:53:29;4.15;;;2.60;;
79076;SDS011;68477;42.698;23.342;2024-01-16T13:55:54;4.13;;;2.60;;
79076;SDS011;68477;42.698;23.342;2024-01-16T13:58:20;5.72;;;2.80;;
79076;SDS011;68477;42.698;23.342;2024-01-16T14:00:45;6.32;;;3.40;;
79076;SDS011;68477;42.698;23.342;2024-01-16T14:03:11;6.00;;;2.88;;
79076;SDS011;68477;42.698;23.342;2024-01-16T14:05:36;11.48;;;3.45;;
79076;SDS011;68477;42.698;23.342;2024-01-16T14:08:05;6.53;;;3.88;;
79076;SDS011;68477;42.698;23.342;2024-01-16T14:10:31;6.60;;;2.88;;
79076;SDS011;68477;42.698;23.342;2024-01-16T14:12:56;6.80;;;3.28;;
79076;SDS011;68477;42.698;23.342;2024-01-16T14:15:21;4.82;;;3.55;;
79076;SDS011;68477;42.698;23.342;2024-01-16T14:17:49;4.47;;;2.92;;
79076;SDS011;68477;42.698;23.342;2024-01-16T14:20:17;5.20;;;3.33;;
79076;SDS011;68477;42.698;23.342;2024-01-16T14:22:46;5.25;;;3.00;;
79076;SDS011;68477;42.698;23.342;2024-01-16T14:25:11;6.75;;;3.42;;
79076;SDS011;68477;42.698;23.342;2024-01-16T14:27:38;4.88;;;3.40;;
79076;SDS011;68477;42.698;23.342;2024-01-16T14:30:09;5.78;;;2.90;;
79076;SDS011;68477;42.698;23.342;2024-01-16T14:32:42;6.22;;;3.70;;
79076;SDS011;68477;42.698;23.342;2024-01-16T14:35:09;7.15;;;3.60;;
79076;SDS011;68477;42.698;23.342;2024-01-16T14:37:36;4.68;;;3.00;;
79076;SDS011;68477;42.698;23.342;2024-01-16T14:40:03;6.47;;;2.90;;
79076;SDS011;68477;42.698;23.342;2024-01-16T14:42:37;5.78;;;3.13;;
79076;SDS011;68477;42.698;23.342;2024-01-16T14:45:06;8.95;;;4.10;;
79076;SDS011;68477;42.698;23.342;2024-01-16T14:47:36;4.55;;;3.10;;
79076;SDS011;68477;42.698;23.342;2024-01-16T14:50:02;4.43;;;3.00;;